Time;durP1;ratioP1;P1;durP2;ratioP2;P2;SDS_P1;SDS_P2;PMS_P1;PMS_P2;Temp;Humidity;BMP_temperature;BMP_pressure;BME280_temperature;BME280_humidity;BME280_pressure;Samples;Min_cycle;Max_cycle;Signal;HPM_P1;HPM_P2
2022/07/31 00:00:28;;;;;;;;;;;;;;;23.97;57.39;101496.47;7281576;19;154139;-69
2022/07/31 00:02:56;;;;;;;;;;;;;;;23.88;57.46;101488.75;7283425;19;152016;-69
2022/07/31 00:05:23;;;;;;;;;;;;;;;23.93;57.75;101499.09;7284506;19;152859;-69
2022/07/31 00:07:51;;;;;;;;;;;;;;;23.99;57.57;101496.97;7282098;19;152285;-69
2022/07/31 00:10:18;;;;;;;;;;;;;;;23.99;57.22;101497.81;7278870;19;152561;-69
2022/07/31 00:12:45;;;;;;;;;;;;;;;23.89;57.81;101500.88;7281687;19;153126;-70
2022/07/31 00:15:12;;;;;;;;;;;;;;;23.85;57.97;101503.47;7283217;19;152720;-69
2022/07/31 00:17:39;;;;;;;;;;;;;;;23.82;58.15;101489.19;7282700;19;153398;-69
2022/07/31 00:20:06;;;;;;;;;;;;;;;23.86;57.96;101485.41;7278455;19;154064;-69
2022/07/31 00:22:34;;;;;;;;;;;;;;;23.79;58.50;101481.34;7281937;19;152031;-69
2022/07/31 00:25:01;;;;;;;;;;;;;;;23.94;58.20;101481.81;7281275;19;152079;-69
2022/07/31 00:27:27;;;;;;;;;;;;;;;23.82;58.19;101481.56;7288648;19;155559;-69
2022/07/31 00:29:54;;;;;;;;;;;;;;;23.83;58.15;101479.56;7281105;19;152665;-69
2022/07/31 00:32:21;;;;;;;;;;;;;;;23.79;58.38;101479.38;7282010;19;153719;-69
2022/07/31 00:34:47;;;;;;;;;;;;;;;23.79;58.38;101479.38;7279210;19;152561;-69
2022/07/31 00:37:14;;;;;;;;;;;;;;;23.83;58.27;101483.22;7281151;19;153089;-69
2022/07/31 00:39:41;;;;;;;;;;;;;;;23.89;58.47;101483.94;7280279;19;153372;-69
2022/07/31 00:42:21;;;;;;;;;;;;;;;23.82;58.73;101492.00;7282934;19;152597;-69
2022/07/31 00:44:48;;;;;;;;;;;;;;;23.77;59.08;101486.47;7280210;19;152572;-69
2022/07/31 00:47:15;;;;;;;;;;;;;;;23.87;59.02;101489.06;7281812;19;153727;-69
2022/07/31 00:49:42;;;;;;;;;;;;;;;23.72;59.37;101475.31;7284673;19;152348;-69
2022/07/31 00:52:09;;;;;;;;;;;;;;;23.81;58.81;101479.03;7280814;19;154465;-69
2022/07/31 00:54:36;;;;;;;;;;;;;;;23.81;58.78;101473.41;7280096;19;152265;-69
2022/07/31 00:57:03;;;;;;;;;;;;;;;23.77;59.08;101472.38;7282705;19;152547;-68
2022/07/31 00:59:31;;;;;;;;;;;;;;;23.73;59.42;101482.63;7280162;19;153384;-69
2022/07/31 01:01:58;;;;;;;;;;;;;;;23.74;59.21;101473.00;7282523;19;152084;-68
2022/07/31 01:04:25;;;;;;;;;;;;;;;23.67;59.65;101470.59;7276840;19;152606;-69
2022/07/31 01:06:52;;;;;;;;;;;;;;;23.77;59.03;101464.75;7279541;19;153346;-69
2022/07/31 01:09:19;;;;;;;;;;;;;;;23.68;59.74;101458.19;7282564;19;152461;-69
2022/07/31 01:12:08;;;;;;;;;;;;;;;23.70;59.74;101453.06;7292251;19;153683;-69
2022/07/31 01:14:39;;;;;;;;;;;;;;;23.71;59.66;101451.88;7286468;19;154790;-69
2022/07/31 01:17:05;;;;;;;;;;;;;;;23.70;59.76;101453.06;7288182;19;152737;-69
2022/07/31 01:19:46;;;;;;;;;;;;;;;23.72;59.35;101464.84;7283289;19;153189;-69
2022/07/31 01:22:15;;;;;;;;;;;;;;;23.78;59.51;101455.13;7287436;19;152214;-69
2022/07/31 01:25:06;;;;;;;;;;;;;;;23.84;59.34;101453.03;7287772;19;152767;-69
2022/07/31 01:27:36;;;;;;;;;;;;;;;23.74;59.48;101454.09;7286505;19;154212;-69
2022/07/31 01:30:15;;;;;;;;;;;;;;;23.76;59.77;101446.13;7281983;19;153556;-69
2022/07/31 01:32:45;;;;;;;;;;;;;;;23.73;59.62;101460.88;7288302;19;153347;-69
2022/07/31 01:35:19;;;;;;;;;;;;;;;23.69;60.63;101450.56;7291709;19;153814;-69
2022/07/31 01:37:51;;;;;;;;;;;;;;;23.68;60.31;101454.53;7285893;19;153219;-69
2022/07/31 01:40:35;;;;;;;;;;;;;;;23.64;60.45;101454.31;7283379;19;152181;-69
2022/07/31 01:43:06;;;;;;;;;;;;;;;23.70;60.50;101449.41;7286751;19;152394;-68
2022/07/31 01:45:35;;;;;;;;;;;;;;;23.73;60.22;101437.47;7287046;19;153006;-69
2022/07/31 01:48:03;;;;;;;;;;;;;;;23.65;60.37;101441.06;7281841;19;153273;-69
2022/07/31 01:50:31;;;;;;;;;;;;;;;23.76;59.96;101439.66;7283482;19;153111;-69
2022/07/31 01:53:11;;;;;;;;;;;;;;;23.73;60.20;101443.13;7284969;19;152500;-68
2022/07/31 01:55:40;;;;;;;;;;;;;;;23.72;60.55;101433.81;7292419;19;153765;-69
2022/07/31 01:58:27;;;;;;;;;;;;;;;23.67;60.67;101438.72;7285739;19;156075;-69
2022/07/31 02:00:57;;;;;;;;;;;;;;;23.63;60.89;101443.34;7283624;19;153519;-69
2022/07/31 02:03:25;;;;;;;;;;;;;;;23.67;60.56;101430.28;7284873;19;151997;-69
2022/07/31 02:06:14;;;;;;;;;;;;;;;23.63;60.56;101430.06;7282968;19;152759;-69
2022/07/31 02:08:44;;;;;;;;;;;;;;;23.57;61.51;101430.53;7284843;19;153912;-69
2022/07/31 02:11:12;;;;;;;;;;;;;;;23.58;61.36;101418.91;7285519;19;151592;-69
2022/07/31 02:13:39;;;;;;;;;;;;;;;23.65;60.87;101432.59;7286292;19;153368;-69
2022/07/31 02:16:07;;;;;;;;;;;;;;;23.69;60.71;101428.81;7285410;19;154137;-69
2022/07/31 02:18:34;;;;;;;;;;;;;;;23.65;60.94;101433.44;7291983;19;152240;-69
2022/07/31 02:21:01;;;;;;;;;;;;;;;23.63;61.19;101435.72;7282155;19;154119;-69
2022/07/31 02:23:27;;;;;;;;;;;;;;;23.60;61.28;101435.53;7285356;19;151775;-69
2022/07/31 02:25:54;;;;;;;;;;;;;;;23.56;61.72;101423.22;7285741;19;153328;-69
2022/07/31 02:28:21;;;;;;;;;;;;;;;23.63;61.33;101426.41;7284416;19;152253;-69
2022/07/31 02:30:50;;;;;;;;;;;;;;;23.60;61.24;101427.91;7285318;19;153325;-69
2022/07/31 02:33:21;;;;;;;;;;;;;;;23.70;61.94;101421.19;7284088;19;153709;-69
2022/07/31 02:35:49;;;;;;;;;;;;;;;23.70;61.58;101413.56;7281737;19;154891;-69
2022/07/31 02:38:17;;;;;;;;;;;;;;;23.61;62.05;101409.00;7286004;19;151932;-69
2022/07/31 02:41:08;;;;;;;;;;;;;;;23.58;62.46;101403.97;7290821;19;153453;-69
2022/07/31 02:43:35;;;;;;;;;;;;;;;23.69;62.50;101402.59;7283994;19;154096;-69
2022/07/31 02:46:02;;;;;;;;;;;;;;;23.61;62.75;101395.72;7286820;19;153433;-69
2022/07/31 02:48:30;;;;;;;;;;;;;;;23.63;62.61;101406.66;7283270;19;154802;-69
2022/07/31 02:50:57;;;;;;;;;;;;;;;23.57;62.83;101405.97;7283094;19;152753;-68
2022/07/31 02:53:23;;;;;;;;;;;;;;;23.58;63.39;101393.53;7284837;19;152908;-69
2022/07/31 02:55:50;;;;;;;;;;;;;;;23.62;62.84;101393.75;7282759;19;152612;-69
2022/07/31 02:58:17;;;;;;;;;;;;;;;23.52;63.29;101393.97;7284025;19;153101;-69
2022/07/31 03:00:44;;;;;;;;;;;;;;;23.53;63.09;101392.84;7285819;19;152650;-69
2022/07/31 03:03:11;;;;;;;;;;;;;;;23.54;63.41;101397.28;7291677;19;153990;-69
2022/07/31 03:05:38;;;;;;;;;;;;;;;23.49;63.71;101398.25;7278687;19;153381;-69
2022/07/31 03:08:05;;;;;;;;;;;;;;;23.53;63.63;101401.28;7283850;19;153659;-69
2022/07/31 03:10:31;;;;;;;;;;;;;;;23.48;63.67;101403.06;7284228;19;152021;-69
2022/07/31 03:12:59;;;;;;;;;;;;;;;23.55;63.35;101404.63;7282076;19;153464;-68
2022/07/31 03:15:26;;;;;;;;;;;;;;;23.54;63.50;101398.13;7283862;19;153364;-69
2022/07/31 03:17:53;;;;;;;;;;;;;;;23.46;63.82;101385.63;7282792;19;152303;-69
2022/07/31 03:20:20;;;;;;;;;;;;;;;23.48;64.19;101385.31;7281613;19;152486;-69
2022/07/31 03:22:47;;;;;;;;;;;;;;;23.57;63.68;101391.88;7281447;19;153821;-69
2022/07/31 03:25:14;;;;;;;;;;;;;;;23.59;63.21;101385.91;7289972;19;153121;-69
2022/07/31 03:27:48;;;;;;;;;;;;;;;23.51;63.53;101389.47;7282977;19;154033;-69
2022/07/31 03:30:25;;;;;;;;;;;;;;;23.44;64.24;101373.81;7281464;19;152682;-69
2022/07/31 03:32:53;;;;;;;;;;;;;;;23.46;64.13;101368.72;7283285;19;151809;-69
2022/07/31 03:35:20;;;;;;;;;;;;;;;23.48;63.67;101374.84;7279074;19;153875;-69
2022/07/31 03:37:47;;;;;;;;;;;;;;;23.53;63.82;101384.38;7283446;19;152092;-69
2022/07/31 03:40:13;;;;;;;;;;;;;;;23.55;63.88;101373.59;7283477;19;153665;-68
2022/07/31 03:42:41;;;;;;;;;;;;;;;23.48;63.91;101380.50;7281993;19;152536;-69
2022/07/31 03:45:09;;;;;;;;;;;;;;;23.43;64.28;101372.16;7281661;19;152315;-69
2022/07/31 03:47:36;;;;;;;;;;;;;;;23.46;64.15;101380.00;7290725;19;153749;-68
2022/07/31 03:50:03;;;;;;;;;;;;;;;23.55;63.76;101384.88;7280208;19;152900;-68
2022/07/31 03:52:30;;;;;;;;;;;;;;;23.52;63.95;101379.88;7280523;19;153339;-69
2022/07/31 03:54:57;;;;;;;;;;;;;;;23.47;64.20;101386.47;7280578;19;153475;-68
2022/07/31 03:57:25;;;;;;;;;;;;;;;23.48;64.09;101379.69;7284138;19;152118;-69
2022/07/31 03:59:58;;;;;;;;;;;;;;;23.51;64.54;101383.84;7280904;19;153491;-69
2022/07/31 04:02:26;;;;;;;;;;;;;;;23.45;64.49;101383.97;7282234;19;152447;-69
2022/07/31 04:04:53;;;;;;;;;;;;;;;23.45;64.26;101380.31;7277629;19;153715;-69
2022/07/31 04:07:20;;;;;;;;;;;;;;;23.45;64.49;101361.41;7289728;19;153688;-69
2022/07/31 04:09:47;;;;;;;;;;;;;;;23.49;64.56;101358.75;7282036;19;152277;-69
2022/07/31 04:12:13;;;;;;;;;;;;;;;23.51;64.05;101356.47;7282811;19;153414;-69
2022/07/31 04:14:40;;;;;;;;;;;;;;;23.44;64.30;101361.69;7280746;19;153257;-69
2022/07/31 04:17:07;;;;;;;;;;;;;;;23.41;64.83;101365.97;7284238;19;154627;-68
2022/07/31 04:19:34;;;;;;;;;;;;;;;23.46;64.15;101363.06;7279234;19;153141;-69
2022/07/31 04:22:01;;;;;;;;;;;;;;;23.50;64.30;101360.44;7281039;19;153813;-68
2022/07/31 04:24:28;;;;;;;;;;;;;;;23.38;64.59;101358.16;7281805;19;153977;-68
2022/07/31 04:26:55;;;;;;;;;;;;;;;23.52;64.21;101362.94;7283208;19;153375;-68
2022/07/31 04:29:22;;;;;;;;;;;;;;;23.42;64.51;101364.81;7289389;19;155384;-69
2022/07/31 04:31:49;;;;;;;;;;;;;;;23.39;64.88;101364.63;7281523;19;153153;-68
2022/07/31 04:34:16;;;;;;;;;;;;;;;23.40;64.41;101352.19;7278468;19;153819;-69
2022/07/31 04:36:43;;;;;;;;;;;;;;;23.49;64.50;101350.31;7282228;19;151903;-69
2022/07/31 04:39:13;;;;;;;;;;;;;;;23.45;64.39;101355.75;7281261;19;153595;-69
2022/07/31 04:41:43;;;;;;;;;;;;;;;23.34;65.07;101353.47;7281168;19;153402;-69
2022/07/31 04:44:10;;;;;;;;;;;;;;;23.38;64.92;101351.69;7285528;19;155017;-69
2022/07/31 04:46:37;;;;;;;;;;;;;;;23.41;64.46;101349.06;7287763;19;152425;-68
2022/07/31 04:49:11;;;;;;;;;;;;;;;23.31;65.13;101363.38;7284456;19;153985;-69
2022/07/31 04:51:42;;;;;;;;;;;;;;;23.38;64.65;101360.13;7294888;19;152749;-69
2022/07/31 04:54:09;;;;;;;;;;;;;;;23.36;65.00;101349.16;7284257;19;153004;-68
2022/07/31 04:56:40;;;;;;;;;;;;;;;23.46;64.18;101359.41;7287084;19;154027;-69
2022/07/31 04:59:13;;;;;;;;;;;;;;;23.40;64.75;101364.28;7286842;19;152502;-68
2022/07/31 05:01:43;;;;;;;;;;;;;;;23.45;64.61;101367.03;7285397;19;153102;-68
2022/07/31 05:04:10;;;;;;;;;;;;;;;23.38;64.79;101371.41;7285001;19;152027;-69
2022/07/31 05:06:38;;;;;;;;;;;;;;;23.43;64.60;101369.31;7285453;19;153121;-69
2022/07/31 05:09:12;;;;;;;;;;;;;;;23.40;64.70;101355.84;7286601;19;153907;-69
2022/07/31 05:11:46;;;;;;;;;;;;;;;23.52;64.50;101357.31;7287642;19;151878;-68
2022/07/31 05:14:13;;;;;;;;;;;;;;;23.37;64.62;101350.00;7294051;19;153177;-69
2022/07/31 05:16:40;;;;;;;;;;;;;;;23.39;64.61;101367.47;7288609;19;153724;-69
2022/07/31 05:19:13;;;;;;;;;;;;;;;23.47;64.84;101361.09;7284017;19;152546;-69
2022/07/31 05:21:44;;;;;;;;;;;;;;;23.36;65.07;101357.63;7285421;19;152565;-69
2022/07/31 05:24:18;;;;;;;;;;;;;;;23.34;64.85;101361.94;7286835;19;153010;-69
2022/07/31 05:27:00;;;;;;;;;;;;;;;23.32;64.99;101352.94;7288391;19;152654;-69
2022/07/31 05:29:27;;;;;;;;;;;;;;;23.29;65.26;101360.06;7286143;19;153452;-69
2022/07/31 05:31:55;;;;;;;;;;;;;;;23.33;65.27;101347.00;7287219;19;152126;-68
2022/07/31 05:34:28;;;;;;;;;;;;;;;23.30;64.88;101344.81;7283735;19;152607;-69
2022/07/31 05:36:55;;;;;;;;;;;;;;;23.35;64.84;101344.66;7293537;19;153792;-69
2022/07/31 05:39:23;;;;;;;;;;;;;;;23.36;64.82;101349.16;7287635;19;153133;-68
2022/07/31 05:41:51;;;;;;;;;;;;;;;23.30;65.03;101356.09;7286344;19;154155;-69
2022/07/31 05:44:18;;;;;;;;;;;;;;;23.33;65.14;101351.78;7287467;19;154218;-68
2022/07/31 05:46:45;;;;;;;;;;;;;;;23.34;64.84;101347.84;7286932;19;151988;-68
2022/07/31 05:49:11;;;;;;;;;;;;;;;23.38;65.09;101351.69;7282306;19;153729;-69
2022/07/31 05:51:41;;;;;;;;;;;;;;;23.29;65.31;101337.50;7286674;19;152586;-69
2022/07/31 05:54:08;;;;;;;;;;;;;;;23.40;65.01;101343.72;7285800;19;153520;-68
2022/07/31 05:56:34;;;;;;;;;;;;;;;23.35;64.99;101346.66;7286212;19;152872;-69
2022/07/31 05:59:01;;;;;;;;;;;;;;;23.23;65.80;101346.38;7292714;19;152413;-69
2022/07/31 06:01:28;;;;;;;;;;;;;;;23.25;65.75;101344.94;7285121;19;153186;-68
2022/07/31 06:03:54;;;;;;;;;;;;;;;23.30;65.10;101338.34;7284164;19;152758;-69
2022/07/31 06:06:21;;;;;;;;;;;;;;;23.32;65.62;101338.84;7285133;19;152466;-68
2022/07/31 06:08:48;;;;;;;;;;;;;;;23.35;65.48;101339.03;7285465;19;153381;-69
2022/07/31 06:11:14;;;;;;;;;;;;;;;23.25;65.92;101342.13;7285910;19;152610;-69
2022/07/31 06:13:42;;;;;;;;;;;;;;;23.28;65.58;101340.63;7283455;19;152183;-68
2022/07/31 06:16:12;;;;;;;;;;;;;;;23.36;65.01;101334.22;7283018;19;152285;-68
2022/07/31 06:18:39;;;;;;;;;;;;;;;23.41;65.04;101342.56;7290904;19;152219;-68
2022/07/31 06:21:06;;;;;;;;;;;;;;;23.37;65.08;101342.38;7283860;19;154832;-68
2022/07/31 06:23:33;;;;;;;;;;;;;;;23.34;65.20;101340.22;7285735;19;152428;-68
2022/07/31 06:25:59;;;;;;;;;;;;;;;23.34;65.22;101336.56;7285072;19;152934;-69
2022/07/31 06:28:26;;;;;;;;;;;;;;;23.30;65.14;101333.53;7285048;19;153952;-68
2022/07/31 06:31:19;;;;;;;;;;;;;;;23.29;65.65;101337.50;7285378;19;153167;-68
2022/07/31 06:33:46;;;;;;;;;;;;;;;23.29;65.74;101337.50;7281574;19;153448;-68
2022/07/31 06:36:15;;;;;;;;;;;;;;;23.35;65.32;101339.03;7283945;19;154142;-68
2022/07/31 06:38:42;;;;;;;;;;;;;;;23.30;65.62;101342.00;7286372;19;152799;-69
2022/07/31 06:41:08;;;;;;;;;;;;;;;23.34;65.64;101351.50;7292415;19;152520;-68
2022/07/31 06:43:35;;;;;;;;;;;;;;;23.32;65.77;101345.31;7284455;19;151972;-69
2022/07/31 06:46:02;;;;;;;;;;;;;;;23.38;65.39;101349.69;7285795;19;151889;-68
2022/07/31 06:48:29;;;;;;;;;;;;;;;23.36;65.24;101352.00;7283034;19;153344;-69
2022/07/31 06:50:55;;;;;;;;;;;;;;;23.28;66.29;101366.00;7285010;19;152496;-69
2022/07/31 06:53:42;;;;;;;;;;;;;;;23.28;65.78;101352.75;7280767;19;156943;-69
2022/07/31 06:56:09;;;;;;;;;;;;;;;23.30;66.01;101343.97;7283457;19;154329;-69
2022/07/31 06:58:35;;;;;;;;;;;;;;;23.37;65.68;101348.03;7284146;19;152269;-69
2022/07/31 07:01:02;;;;;;;;;;;;;;;23.35;65.51;101339.03;7285915;19;153856;-69
2022/07/31 07:03:29;;;;;;;;;;;;;;;23.28;65.88;101341.47;7288634;19;153149;-69
2022/07/31 07:05:55;;;;;;;;;;;;;;;23.29;66.37;101347.94;7277791;19;152185;-68
2022/07/31 07:08:22;;;;;;;;;;;;;;;23.38;65.08;101344.06;7283649;19;153626;-69
2022/07/31 07:10:49;;;;;;;;;;;;;;;23.39;65.37;101340.06;7283809;19;151978;-69
2022/07/31 07:13:16;;;;;;;;;;;;;;;23.29;66.19;101354.44;7281385;19;153673;-68
2022/07/31 07:15:42;;;;;;;;;;;;;;;23.33;66.11;101332.06;7283964;19;153882;-68
2022/07/31 07:18:09;;;;;;;;;;;;;;;23.38;65.57;101346.03;7283038;19;152727;-69
2022/07/31 07:20:36;;;;;;;;;;;;;;;23.38;65.67;101340.41;7282749;19;152625;-69
2022/07/31 07:23:02;;;;;;;;;;;;;;;23.37;66.19;101342.38;7281919;19;152563;-68
2022/07/31 07:25:29;;;;;;;;;;;;;;;23.39;65.65;101359.81;7291332;19;152467;-69
2022/07/31 07:27:56;;;;;;;;;;;;;;;23.41;65.45;101345.41;7283295;19;154075;-69
2022/07/31 07:30:27;;;;;;;;;;;;;;;23.39;65.60;101345.69;7284892;19;152581;-69
2022/07/31 07:32:53;;;;;;;;;;;;;;;23.42;65.50;101342.25;7280648;19;154253;-69
2022/07/31 07:35:20;;;;;;;;;;;;;;;23.46;65.59;101345.31;7279973;19;153418;-69
2022/07/31 07:37:47;;;;;;;;;;;;;;;23.47;65.53;101353.47;7283539;19;151918;-68
2022/07/31 07:40:15;;;;;;;;;;;;;;;23.41;65.51;101346.22;7281956;19;153745;-69
2022/07/31 07:42:42;;;;;;;;;;;;;;;23.38;65.84;101344.06;7282071;19;153507;-69
2022/07/31 07:45:09;;;;;;;;;;;;;;;23.38;65.90;101337.59;7283897;19;155810;-69
2022/07/31 07:47:36;;;;;;;;;;;;;;;23.38;65.79;101346.03;7291500;19;151987;-69
2022/07/31 07:50:23;;;;;;;;;;;;;;;23.30;66.28;101342.00;7281100;19;152216;-69
2022/07/31 07:52:54;;;;;;;;;;;;;;;23.38;66.09;101346.03;7279581;19;152753;-69
2022/07/31 07:55:21;;;;;;;;;;;;;;;23.44;65.72;101354.06;7281144;19;154161;-68
2022/07/31 07:57:47;;;;;;;;;;;;;;;23.45;65.59;101355.75;7283477;19;152353;-69
2022/07/31 08:00:15;;;;;;;;;;;;;;;23.38;65.59;101335.59;7282232;19;152924;-69
2022/07/31 08:02:43;;;;;;;;;;;;;;;23.41;65.66;101337.78;7280787;19;153260;-69
2022/07/31 08:05:30;;;;;;;;;;;;;;;23.45;65.26;101335.16;7278209;19;152107;-68
2022/07/31 08:07:56;;;;;;;;;;;;;;;23.43;65.54;101329.00;7283065;19;153090;-69
2022/07/31 08:10:23;;;;;;;;;;;;;;;23.39;65.92;101336.44;7288558;19;152840;-69
2022/07/31 08:12:50;;;;;;;;;;;;;;;23.41;65.78;101334.13;7281220;19;153545;-68
2022/07/31 08:15:17;;;;;;;;;;;;;;;23.44;65.13;101323.06;7281781;19;152192;-69
2022/07/31 08:17:43;;;;;;;;;;;;;;;23.47;65.45;101330.06;7285264;19;152095;-69
2022/07/31 08:20:12;;;;;;;;;;;;;;;23.46;65.49;101331.22;7287595;19;153329;-69
2022/07/31 08:22:39;;;;;;;;;;;;;;;23.46;64.71;101336.84;7287105;19;153850;-69
2022/07/31 08:25:05;;;;;;;;;;;;;;;23.49;64.85;101328.56;7287487;19;151780;-69
2022/07/31 08:27:39;;;;;;;;;;;;;;;23.44;65.09;101327.84;7289162;19;153624;-69
2022/07/31 08:30:07;;;;;;;;;;;;;;;23.39;65.51;101356.97;7294569;19;153952;-68
2022/07/31 08:32:33;;;;;;;;;;;;;;;23.44;65.38;101331.50;7288531;19;152501;-69
2022/07/31 08:35:01;;;;;;;;;;;;;;;23.41;65.42;101328.47;7285241;19;154197;-69
2022/07/31 08:37:29;;;;;;;;;;;;;;;23.46;65.00;101348.97;7287160;19;153782;-69
2022/07/31 08:40:16;;;;;;;;;;;;;;;23.46;64.87;101343.31;7287458;19;156400;-69
2022/07/31 08:42:44;;;;;;;;;;;;;;;23.44;64.51;101339.13;7285389;19;152565;-68
2022/07/31 08:45:11;;;;;;;;;;;;;;;23.41;65.16;101331.28;7288250;19;152247;-69
2022/07/31 08:47:40;;;;;;;;;;;;;;;23.42;65.14;101342.25;7286868;19;152306;-69
2022/07/31 08:50:07;;;;;;;;;;;;;;;23.41;65.13;101353.84;7283465;19;152591;-68
2022/07/31 08:52:34;;;;;;;;;;;;;;;23.47;64.70;101355.44;7294725;19;151892;-69
2022/07/31 08:55:06;;;;;;;;;;;;;;;23.46;64.58;101350.94;7284450;19;153864;-68
2022/07/31 08:57:33;;;;;;;;;;;;;;;23.42;64.88;101358.34;7288336;19;152610;-69
2022/07/31 08:59:59;;;;;;;;;;;;;;;23.44;64.50;101342.78;7286526;19;152390;-69
2022/07/31 09:02:26;;;;;;;;;;;;;;;23.42;64.92;101342.25;7287031;19;152574;-69
2022/07/31 09:04:53;;;;;;;;;;;;;;;23.45;64.74;101347.28;7281983;19;152996;-69
2022/07/31 09:07:20;;;;;;;;;;;;;;;23.48;64.47;101349.47;7287524;19;152096;-69
2022/07/31 09:09:46;;;;;;;;;;;;;;;23.53;64.27;101356.97;7285837;19;154668;-68
2022/07/31 09:12:27;;;;;;;;;;;;;;;23.51;64.31;101345.19;7287623;19;152728;-69
2022/07/31 09:14:59;;;;;;;;;;;;;;;23.49;64.62;101347.47;7293656;19;152806;-69
2022/07/31 09:17:30;;;;;;;;;;;;;;;23.43;64.69;101348.75;7288131;19;151920;-69
2022/07/31 09:19:57;;;;;;;;;;;;;;;23.44;64.56;101345.63;7283819;19;153155;-69
2022/07/31 09:22:25;;;;;;;;;;;;;;;23.41;64.62;101349.06;7286867;19;153729;-68
2022/07/31 09:24:52;;;;;;;;;;;;;;;23.43;64.28;101341.13;7285955;19;152524;-69
2022/07/31 09:27:26;;;;;;;;;;;;;;;23.37;64.94;101348.03;7288757;19;152613;-69
2022/07/31 09:29:55;;;;;;;;;;;;;;;23.47;64.43;101339.34;7282321;19;153909;-69
2022/07/31 09:32:22;;;;;;;;;;;;;;;23.43;64.60;101352.41;7287407;19;151742;-69
2022/07/31 09:34:48;;;;;;;;;;;;;;;23.43;64.58;101340.28;7281998;19;154205;-69
2022/07/31 09:37:16;;;;;;;;;;;;;;;23.50;64.14;101351.97;7292308;19;154613;-69
2022/07/31 09:39:50;;;;;;;;;;;;;;;23.54;64.44;101343.69;7286750;19;153995;-69
2022/07/31 09:42:18;;;;;;;;;;;;;;;23.49;64.00;101353.97;7285283;19;153260;-69
2022/07/31 09:44:47;;;;;;;;;;;;;;;23.51;64.14;101345.19;7286955;19;152000;-69
2022/07/31 09:47:20;;;;;;;;;;;;;;;23.53;64.34;101339.25;7286428;19;152565;-69
2022/07/31 09:49:53;;;;;;;;;;;;;;;23.52;64.30;101351.66;7283176;19;154161;-69
2022/07/31 09:52:20;;;;;;;;;;;;;;;23.43;64.34;101332.66;7287064;19;152307;-69
2022/07/31 09:54:47;;;;;;;;;;;;;;;23.46;64.20;101345.31;7282633;19;152405;-69
2022/07/31 09:57:14;;;;;;;;;;;;;;;23.50;64.12;101349.16;7283881;19;152659;-69
2022/07/31 09:59:41;;;;;;;;;;;;;;;23.48;64.14;101357.94;7292804;19;154685;-69
2022/07/31 10:02:08;;;;;;;;;;;;;;;23.47;64.34;101356.28;7286191;19;153272;-69
2022/07/31 10:04:38;;;;;;;;;;;;;;;23.49;64.28;101351.13;7282295;19;152715;-69
2022/07/31 10:07:05;;;;;;;;;;;;;;;23.55;63.76;101359.47;7286012;19;152027;-69
2022/07/31 10:09:32;;;;;;;;;;;;;;;23.55;63.96;101348.19;7283240;19;152566;-69
2022/07/31 10:12:00;;;;;;;;;;;;;;;23.47;64.13;101338.53;7286711;19;152059;-69
2022/07/31 10:14:27;;;;;;;;;;;;;;;23.53;64.45;101340.03;7283545;19;152979;-69
2022/07/31 10:16:55;;;;;;;;;;;;;;;23.51;64.24;101333.91;7285029;19;153782;-69
2022/07/31 10:19:22;;;;;;;;;;;;;;;23.47;64.38;101338.53;7289952;19;152091;-69
2022/07/31 10:21:53;;;;;;;;;;;;;;;23.61;64.00;101335.66;7284361;19;152593;-69
2022/07/31 10:24:20;;;;;;;;;;;;;;;23.56;64.02;101330.13;7284619;19;152366;-68
2022/07/31 10:26:57;;;;;;;;;;;;;;;23.53;63.96;101336.41;7286760;19;153075;-69
2022/07/31 10:29:30;;;;;;;;;;;;;;;23.48;64.72;101334.56;7284524;19;152676;-69
2022/07/31 10:31:58;;;;;;;;;;;;;;;23.49;64.37;101334.22;7286185;19;151748;-69
2022/07/31 10:34:26;;;;;;;;;;;;;;;23.47;64.76;101336.53;7279558;19;152232;-68
2022/07/31 10:36:57;;;;;;;;;;;;;;;23.49;64.54;101339.03;7282850;19;152738;-69
2022/07/31 10:39:34;;;;;;;;;;;;;;;23.44;64.88;101347.59;7284348;19;152280;-69
2022/07/31 10:42:16;;;;;;;;;;;;;;;23.46;64.33;101337.69;7289373;19;153037;-69
2022/07/31 10:44:52;;;;;;;;;;;;;;;23.44;64.83;101334.34;7285865;19;152460;-69
2022/07/31 10:47:19;;;;;;;;;;;;;;;23.53;64.74;101327.97;7285432;19;153341;-69
2022/07/31 10:49:47;;;;;;;;;;;;;;;23.50;64.22;101337.88;7283537;19;153752;-69
2022/07/31 10:52:34;;;;;;;;;;;;;;;23.51;64.47;101335.88;7285079;19;152516;-69
2022/07/31 10:55:12;;;;;;;;;;;;;;;23.54;64.15;101333.25;7281527;19;153323;-69
2022/07/31 10:57:40;;;;;;;;;;;;;;;23.55;64.38;101346.22;7283089;19;152204;-69
2022/07/31 11:00:24;;;;;;;;;;;;;;;23.55;64.17;101336.91;7283175;19;152526;-69
2022/07/31 11:03:13;;;;;;;;;;;;;;;23.53;64.34;101353.34;7320834;19;153506;-68
2022/07/31 11:05:50;;;;;;;;;;;;;;;23.49;64.38;101328.56;7313217;19;152950;-68
2022/07/31 11:08:38;;;;;;;;;;;;;;;23.56;63.93;101338.59;7317541;19;152078;-68
2022/07/31 11:11:05;;;;;;;;;;;;;;;23.51;64.43;101324.59;7317788;19;153035;-68
2022/07/31 11:13:32;;;;;;;;;;;;;;;23.56;64.34;101328.16;7315834;19;153442;-68
2022/07/31 11:16:03;;;;;;;;;;;;;;;23.56;63.89;101330.97;7318355;19;152011;-68
2022/07/31 11:18:30;;;;;;;;;;;;;;;23.57;64.06;101331.81;7315110;19;153610;-68
2022/07/31 11:21:00;;;;;;;;;;;;;;;23.59;64.12;101323.84;7314298;19;154454;-68
2022/07/31 11:23:47;;;;;;;;;;;;;;;23.62;63.97;101320.41;7325344;19;151608;-68
2022/07/31 11:26:29;;;;;;;;;;;;;;;23.60;64.34;101342.44;7316123;19;152979;-68
2022/07/31 11:29:13;;;;;;;;;;;;;;;23.61;64.00;101339.31;7318377;19;152089;-68
2022/07/31 11:32:06;;;;;;;;;;;;;;;23.58;64.66;101341.91;7317841;19;155530;-68
2022/07/31 11:34:46;;;;;;;;;;;;;;;23.61;65.02;101330.84;7313257;19;154042;-68
2022/07/31 11:37:17;;;;;;;;;;;;;;;23.63;65.73;101341.78;7317286;19;152365;-68
2022/07/31 11:39:44;;;;;;;;;;;;;;;23.60;66.39;101337.63;7316271;19;151801;-68
2022/07/31 11:42:17;;;;;;;;;;;;;;;23.65;66.16;101351.63;7315427;19;156179;-67
2022/07/31 11:44:44;;;;;;;;;;;;;;;23.63;66.43;101341.78;7317253;19;152473;-68
2022/07/31 11:47:10;;;;;;;;;;;;;;;23.58;67.17;101336.25;7324155;19;152781;-67
2022/07/31 11:50:01;;;;;;;;;;;;;;;23.60;67.23;101331.16;7314479;19;152673;-68
2022/07/31 11:52:28;;;;;;;;;;;;;;;23.60;68.15;101326.34;7317259;19;153422;-68
2022/07/31 11:55:06;;;;;;;;;;;;;;;23.62;67.38;101326.03;7314057;19;153700;-68
2022/07/31 11:57:34;;;;;;;;;;;;;;;23.65;67.85;101331.88;7316883;19;152798;-68
2022/07/31 12:00:18;;;;;;;;;;;;;;;23.68;67.00;101336.84;7316145;19;153420;-68
2022/07/31 12:02:54;;;;;;;;;;;;;;;23.67;67.36;101337.16;7312793;19;153957;-68
2022/07/31 12:05:21;;;;;;;;;;;;;;;23.67;67.43;101337.16;7312829;19;152116;-68
2022/07/31 12:08:04;;;;;;;;;;;;;;;23.67;66.95;101323.06;7314004;19;153258;-68
2022/07/31 12:10:31;;;;;;;;;;;;;;;23.70;66.44;101333.72;7322177;19;154615;-68
2022/07/31 12:12:58;;;;;;;;;;;;;;;23.66;66.80;101330.72;7304478;19;152905;-68
2022/07/31 12:15:24;;;;;;;;;;;;;;;23.75;66.51;101339.25;7286986;19;154271;-68
2022/07/31 12:17:58;;;;;;;;;;;;;;;23.80;66.61;101327.81;7286548;19;151959;-68
2022/07/31 12:20:25;;;;;;;;;;;;;;;23.79;66.58;101332.63;7285276;19;153017;-68
2022/07/31 12:23:03;;;;;;;;;;;;;;;23.77;66.61;101318.00;7281363;19;153709;-68
2022/07/31 12:25:40;;;;;;;;;;;;;;;23.78;66.55;101319.66;7286621;19;151844;-67
2022/07/31 12:28:08;;;;;;;;;;;;;;;23.81;66.71;101316.19;7287178;19;152571;-68
2022/07/31 12:30:34;;;;;;;;;;;;;;;23.85;66.41;101324.84;7286110;19;153954;-68
2022/07/31 12:33:05;;;;;;;;;;;;;;;23.80;66.76;101337.09;7294996;19;152491;-68
2022/07/31 12:35:50;;;;;;;;;;;;;;;23.79;67.07;101343.09;7283978;19;153679;-68
2022/07/31 12:38:26;;;;;;;;;;;;;;;23.79;67.17;101332.63;7287429;19;152920;-68
2022/07/31 12:41:11;;;;;;;;;;;;;;;23.80;67.55;101330.66;7286733;19;152194;-68